Time;durP1;ratioP1;P1;durP2;ratioP2;P2;SDS_P1;SDS_P2;PMS_P1;PMS_P2;Temp;Humidity;BMP_temperature;BMP_pressure;BME280_temperature;BME280_humidity;BME280_pressure;Samples;Min_cycle;Max_cycle;Signal;HPM_P1;HPM_P2
2021/12/26 00:00:29;;;;;;;3.77;1.50;;;;;;;7.16;31.89;100957.47;5127879;28;20377;-67
2021/12/26 00:02:54;;;;;;;8.40;2.80;;;;;;;7.27;31.11;100958.41;5112048;28;20308;-68
2021/12/26 00:05:20;;;;;;;9.93;3.40;;;;;;;7.09;31.39;100960.03;5106974;28;20373;-68
2021/12/26 00:07:46;;;;;;;3.33;1.70;;;;;;;5.84;32.67;100971.88;5129415;28;20117;-67
2021/12/26 00:10:15;;;;;;;2.60;1.10;;;;;;;6.23;32.83;100962.78;5129860;28;20756;-68
2021/12/26 00:12:40;;;;;;;2.70;1.57;;;;;;;6.64;32.01;100957.97;5112774;28;20356;-68
2021/12/26 00:15:07;;;;;;;4.20;1.57;;;;;;;5.93;33.29;100965.91;5127607;28;20771;-68
2021/12/26 00:17:32;;;;;;;3.27;1.50;;;;;;;5.87;33.72;100958.94;5111996;28;20394;-68
2021/12/26 00:19:57;;;;;;;8.23;1.80;;;;;;;6.36;32.25;100949.94;5129514;28;20280;-68
2021/12/26 00:22:24;;;;;;;2.07;1.30;;;;;;;6.44;32.87;100954.34;5129994;28;20038;-68
2021/12/26 00:24:50;;;;;;;2.30;1.30;;;;;;;6.90;31.75;100961.63;5130273;28;20102;-68
2021/12/26 00:27:16;;;;;;;5.27;2.40;;;;;;;7.28;31.76;100966.22;5130238;28;20401;-68
2021/12/26 00:29:41;;;;;;;3.83;1.87;;;;;;;6.46;32.76;100962.16;5110969;28;20026;-68
2021/12/26 00:32:07;;;;;;;2.27;1.23;;;;;;;6.11;32.05;100970.44;5111956;28;20276;-68
2021/12/26 00:34:34;;;;;;;1.77;1.30;;;;;;;7.23;31.33;100960.13;5104528;28;20379;-68
2021/12/26 00:36:59;;;;;;;2.10;1.13;;;;;;;6.90;31.81;100953.84;5109302;28;20019;-68
2021/12/26 00:39:24;;;;;;;3.40;1.43;;;;;;;6.75;31.34;100953.72;5111489;28;20279;-68
2021/12/26 00:41:52;;;;;;;4.40;1.60;;;;;;;6.56;31.52;100953.56;5111384;27;20561;-68
2021/12/26 00:44:18;;;;;;;2.40;1.50;;;;;;;6.49;32.53;100951.78;5132737;27;20034;-68
2021/12/26 00:46:44;;;;;;;4.73;1.40;;;;;;;6.02;32.53;100949.63;5133838;27;20367;-68
2021/12/26 00:49:10;;;;;;;7.80;1.57;;;;;;;6.49;32.32;100941.41;5113326;27;20368;-68
2021/12/26 00:51:35;;;;;;;1.47;1.20;;;;;;;6.54;32.22;100944.91;5115848;27;20023;-68
2021/12/26 00:54:00;;;;;;;1.37;0.90;;;;;;;5.61;33.14;100951.69;5133181;27;20071;-68
2021/12/26 00:56:26;;;;;;;6.43;1.40;;;;;;;5.98;32.98;100953.03;5107926;27;20390;-68
2021/12/26 00:58:51;;;;;;;5.63;1.80;;;;;;;6.02;33.72;100952.22;5115021;27;20031;-68
2021/12/26 01:01:17;;;;;;;0.80;0.70;;;;;;;6.53;32.98;100943.16;5133862;27;20386;-68
2021/12/26 01:03:43;;;;;;;2.67;1.37;;;;;;;6.45;31.81;100945.69;5114020;27;20132;-67
2021/12/26 01:06:09;;;;;;;3.20;1.60;;;;;;;5.77;33.03;100954.50;5122026;27;20035;-68
2021/12/26 01:08:39;;;;;;;2.63;1.47;;;;;;;5.81;33.24;100945.91;5113625;27;20035;-69
2021/12/26 01:11:15;;;;;;;6.03;1.60;;;;;;;6.49;32.05;100940.53;5110775;27;20653;-68
2021/12/26 01:13:43;;;;;;;1.93;1.23;;;;;;;5.51;33.05;100952.44;5115001;27;20276;-68
2021/12/26 01:16:11;;;;;;;3.93;1.20;;;;;;;5.52;33.54;100956.78;5113223;27;20291;-68
2021/12/26 01:18:43;;;;;;;2.07;1.23;;;;;;;6.16;33.26;100949.75;5117241;27;20626;-68
2021/12/26 01:21:17;;;;;;;1.90;1.23;;;;;;;5.54;33.29;100957.66;5097351;27;20284;-68
2021/12/26 01:23:49;;;;;;;4.97;1.57;;;;;;;5.72;33.46;100958.75;5113756;27;20521;-68
2021/12/26 01:26:15;;;;;;;2.43;1.17;;;;;;;6.16;32.38;100950.63;5132858;27;20691;-68
2021/12/26 01:28:40;;;;;;;1.67;1.37;;;;;;;5.31;33.29;100959.09;5132967;27;20333;-68
2021/12/26 01:31:06;;;;;;;3.63;1.70;;;;;;;6.21;33.33;100950.66;5132192;27;20083;-68
2021/12/26 01:33:32;;;;;;;4.17;1.83;;;;;;;5.78;33.17;100956.22;5114852;27;20386;-68
2021/12/26 01:35:58;;;;;;;2.83;2.17;;;;;;;5.97;32.88;100948.66;5104591;28;20024;-68
2021/12/26 01:38:24;;;;;;;3.23;1.80;;;;;;;6.00;33.29;100946.97;5125537;27;20281;-68
2021/12/26 01:40:54;;;;;;;2.57;1.30;;;;;;;5.63;33.58;100940.47;5113990;27;20042;-68
2021/12/26 01:43:24;;;;;;;4.83;1.97;;;;;;;5.84;33.13;100938.16;5103359;28;20031;-68
2021/12/26 01:45:50;;;;;;;4.37;1.80;;;;;;;5.86;33.45;100941.59;5113014;27;20295;-67
2021/12/26 01:48:17;;;;;;;1.87;0.87;;;;;;;6.15;32.81;100941.06;5132255;27;20351;-66
2021/12/26 01:50:44;;;;;;;2.53;1.70;;;;;;;6.62;32.58;100943.25;5114030;27;20328;-67
2021/12/26 01:53:10;;;;;;;2.40;1.13;;;;;;;5.44;33.38;100945.47;5113004;27;20306;-67
2021/12/26 01:55:39;;;;;;;2.33;1.17;;;;;;;5.98;32.39;100927.09;5114325;27;20296;-67
2021/12/26 01:58:08;;;;;;;2.63;1.37;;;;;;;6.00;32.81;100920.16;5130399;27;20412;-67
2021/12/26 02:00:35;;;;;;;3.63;1.43;;;;;;;6.14;32.99;100928.09;5113139;27;20333;-67
2021/12/26 02:03:00;;;;;;;2.37;1.10;;;;;;;6.36;32.03;100918.78;5126719;27;20288;-67
2021/12/26 02:05:26;;;;;;;2.20;1.23;;;;;;;6.41;31.81;100922.28;5111235;27;20269;-67
2021/12/26 02:07:52;;;;;;;1.73;1.00;;;;;;;5.24;33.07;100922.72;5112505;27;20030;-67
2021/12/26 02:10:17;;;;;;;3.30;1.17;;;;;;;5.91;33.04;100916.59;5132001;27;20083;-67
2021/12/26 02:12:43;;;;;;;2.70;1.57;;;;;;;5.77;32.84;100910.41;5108671;27;20069;-67
2021/12/26 02:15:09;;;;;;;3.17;1.13;;;;;;;4.97;34.17;100907.66;5112478;27;20543;-67
2021/12/26 02:17:35;;;;;;;2.47;1.50;;;;;;;5.56;33.50;100917.09;5113801;27;20126;-67
2021/12/26 02:20:20;;;;;;;1.33;1.00;;;;;;;6.08;32.47;100910.72;5112812;27;20425;-67
2021/12/26 02:22:51;;;;;;;1.93;1.30;;;;;;;6.04;33.12;100917.59;5109212;27;20202;-67
2021/12/26 02:28:01;;;;;;;2.17;1.00;;;;;;;6.18;31.73;100915.19;5128758;27;20296;-67
2021/12/26 02:30:26;;;;;;;1.57;0.97;;;;;;;6.16;32.05;100916.00;5131903;27;20276;-67
2021/12/26 02:32:52;;;;;;;2.07;1.30;;;;;;;6.26;32.23;100913.53;5111735;27;20027;-67
2021/12/26 02:35:21;;;;;;;4.00;1.43;;;;;;;6.83;31.13;100915.69;5129648;27;20034;-67
2021/12/26 02:37:48;;;;;;;3.43;1.40;;;;;;;6.55;31.65;100914.59;5112642;27;20347;-67
2021/12/26 02:40:14;;;;;;;3.53;1.40;;;;;;;5.86;32.73;100910.47;5112858;27;20276;-67
2021/12/26 02:42:39;;;;;;;4.40;1.60;;;;;;;6.95;32.00;100905.38;5123718;27;20288;-67
2021/12/26 02:45:06;;;;;;;4.90;1.00;;;;;;;6.52;31.40;100893.81;5111538;27;20643;-67
2021/12/26 02:47:32;;;;;;;2.03;1.00;;;;;;;6.48;31.84;100895.50;5112602;27;20026;-67
2021/12/26 02:50:07;;;;;;;2.87;0.70;;;;;;;6.06;33.00;100894.28;5109313;27;20280;-67
2021/12/26 02:52:32;;;;;;;1.37;0.93;;;;;;;6.39;32.41;100887.66;5126807;27;20285;-67
2021/12/26 02:54:59;;;;;;;1.93;1.30;;;;;;;6.61;32.35;100886.94;5112515;27;20280;-67
2021/12/26 02:57:24;;;;;;;1.93;1.33;;;;;;;6.61;32.14;100897.34;5109248;27;20386;-67
2021/12/26 02:59:50;;;;;;;3.20;1.27;;;;;;;7.13;31.11;100893.34;5100843;27;20284;-67
2021/12/26 03:02:15;;;;;;;3.27;1.30;;;;;;;6.99;31.56;100890.66;5130574;27;20031;-67
2021/12/26 03:04:41;;;;;;;4.53;1.20;;;;;;;6.70;32.48;100885.28;5112552;28;20497;-67
2021/12/26 03:07:06;;;;;;;4.33;1.20;;;;;;;6.89;32.55;100889.72;5129653;27;20047;-67
2021/12/26 03:09:40;;;;;;;1.80;1.23;;;;;;;6.93;31.70;100891.47;5099744;27;20015;-67
2021/12/26 03:12:07;;;;;;;1.87;1.40;;;;;;;5.91;32.78;100880.28;5108201;27;20046;-67
2021/12/26 03:14:32;;;;;;;3.27;0.97;;;;;;;5.67;32.92;100880.00;5107813;27;20641;-67
2021/12/26 03:17:00;;;;;;;2.40;1.40;;;;;;;6.43;32.76;100863.47;5109493;27;20382;-67
2021/12/26 03:19:25;;;;;;;1.57;1.10;;;;;;;5.97;32.43;100865.63;5111337;27;20406;-67
2021/12/26 03:21:51;;;;;;;1.63;1.00;;;;;;;5.73;32.81;100864.53;5127720;27;20287;-67
2021/12/26 03:24:16;;;;;;;4.37;1.17;;;;;;;6.37;32.69;100851.28;5111840;27;20030;-66
2021/12/26 03:26:42;;;;;;;2.13;1.03;;;;;;;6.55;31.43;100847.97;5130820;27;20043;-66
2021/12/26 03:29:07;;;;;;;2.87;1.13;;;;;;;6.96;31.06;100849.94;5109120;28;20092;-66
2021/12/26 03:31:32;;;;;;;2.17;0.97;;;;;;;6.68;30.88;100853.25;5115920;28;20106;-67
2021/12/26 03:33:58;;;;;;;3.63;0.87;;;;;;;6.69;31.36;100854.97;5102551;28;20041;-66
2021/12/26 03:36:23;;;;;;;2.80;1.10;;;;;;;6.97;31.89;100859.44;5104602;28;20030;-67
2021/12/26 03:38:49;;;;;;;1.37;0.80;;;;;;;5.46;32.30;100865.94;5111747;28;20031;-66
2021/12/26 03:41:14;;;;;;;1.87;1.00;;;;;;;6.71;31.56;100859.31;5131118;28;20027;-67
2021/12/26 03:43:39;;;;;;;3.73;1.00;;;;;;;6.06;31.31;100864.00;5111947;28;20027;-66
2021/12/26 03:46:05;;;;;;;2.60;1.50;;;;;;;6.96;31.44;100864.66;5129463;28;20035;-66
2021/12/26 03:48:30;;;;;;;1.10;0.80;;;;;;;7.08;31.83;100869.06;5112295;28;20103;-67
2021/12/26 03:50:58;;;;;;;2.63;1.07;;;;;;;6.38;32.23;100868.59;5111433;28;20035;-67
2021/12/26 03:53:24;;;;;;;3.40;1.10;;;;;;;7.40;30.49;100856.16;5124843;28;20027;-66
2021/12/26 03:55:49;;;;;;;3.67;1.40;;;;;;;7.19;31.46;100856.09;5112460;28;20296;-66
2021/12/26 03:58:15;;;;;;;3.87;1.23;;;;;;;6.96;31.37;100854.25;5129038;28;20073;-66
2021/12/26 04:00:42;;;;;;;1.73;1.00;;;;;;;7.12;30.35;100860.41;5111708;28;20027;-67
2021/12/26 04:03:07;;;;;;;3.27;1.17;;;;;;;6.85;31.74;100851.59;5108981;28;20850;-66
2021/12/26 04:05:34;;;;;;;2.67;1.33;;;;;;;6.13;32.96;100862.34;5108377;28;20285;-67
2021/12/26 04:08:00;;;;;;;2.63;1.13;;;;;;;7.25;31.15;100867.41;5110994;28;20111;-67
2021/12/26 04:10:25;;;;;;;1.87;0.80;;;;;;;6.59;32.09;100854.91;5129994;28;20296;-67
2021/12/26 04:12:54;;;;;;;2.10;1.30;;;;;;;7.57;31.08;100852.75;5126568;28;20114;-67
2021/12/26 04:15:22;;;;;;;4.33;1.23;;;;;;;6.93;31.16;100849.91;5125929;28;20034;-68
2021/12/26 04:17:51;;;;;;;1.30;1.10;;;;;;;6.26;33.23;100846.03;5111872;27;20295;-67
2021/12/26 04:20:16;;;;;;;1.70;0.83;;;;;;;6.27;32.52;100846.88;5114841;27;20284;-67
2021/12/26 04:22:41;;;;;;;1.33;1.13;;;;;;;6.59;32.15;100846.25;5134987;27;20268;-66
2021/12/26 04:25:08;;;;;;;1.70;1.17;;;;;;;7.12;31.88;100855.22;5111591;27;20041;-67
2021/12/26 04:27:33;;;;;;;2.77;1.43;;;;;;;7.12;31.70;100855.22;5114948;27;20048;-67
2021/12/26 04:29:59;;;;;;;2.93;1.47;;;;;;;6.37;32.49;100853.88;5115113;27;20388;-66
2021/12/26 04:32:24;;;;;;;2.20;0.97;;;;;;;7.07;32.11;100854.31;5113874;27;20026;-67
2021/12/26 04:34:50;;;;;;;2.20;1.37;;;;;;;6.74;32.46;100858.47;5132873;27;20432;-67
2021/12/26 04:37:15;;;;;;;2.67;1.20;;;;;;;7.17;32.02;100847.41;5114310;27;20488;-67
2021/12/26 04:39:41;;;;;;;1.97;0.93;;;;;;;7.00;31.96;100849.94;5110517;27;20030;-67
2021/12/26 04:42:07;;;;;;;2.17;1.03;;;;;;;6.15;31.94;100847.63;5133693;27;20568;-67
2021/12/26 04:44:32;;;;;;;2.53;1.10;;;;;;;5.93;33.21;100837.06;5114780;27;20046;-67
2021/12/26 04:46:58;;;;;;;1.73;1.10;;;;;;;6.33;32.66;100836.53;5130041;27;20313;-67
2021/12/26 04:49:23;;;;;;;1.10;1.00;;;;;;;6.12;32.59;100837.25;5113720;27;20031;-67
2021/12/26 04:51:49;;;;;;;2.83;1.50;;;;;;;6.04;32.78;100836.31;5115815;27;20027;-66
2021/12/26 04:54:15;;;;;;;1.33;0.87;;;;;;;6.49;32.01;100832.31;5114998;27;20387;-67
2021/12/26 04:56:40;;;;;;;3.77;1.37;;;;;;;6.44;32.24;100831.41;5132090;27;20110;-67
2021/12/26 04:59:06;;;;;;;1.50;1.00;;;;;;;6.83;32.26;100832.53;5132847;27;20106;-67
2021/12/26 05:01:31;;;;;;;2.10;1.17;;;;;;;6.01;33.48;100828.50;5108169;27;20031;-67
2021/12/26 05:03:57;;;;;;;2.67;1.20;;;;;;;6.82;31.94;100828.19;5113631;27;20023;-66
2021/12/26 05:06:23;;;;;;;2.77;1.50;;;;;;;7.13;31.11;100820.56;5114668;27;20478;-67
2021/12/26 05:08:49;;;;;;;1.70;0.80;;;;;;;6.57;32.42;100815.06;5132702;27;20019;-66
2021/12/26 05:11:14;;;;;;;4.60;1.00;;;;;;;5.83;33.08;100819.66;5130208;27;20295;-66
2021/12/26 05:13:39;;;;;;;2.53;1.00;;;;;;;6.56;32.75;100828.91;5133062;27;20073;-66
2021/12/26 05:16:05;;;;;;;1.90;1.03;;;;;;;6.20;33.09;100817.41;5127254;27;20457;-67
2021/12/26 05:18:30;;;;;;;2.83;1.20;;;;;;;6.14;33.00;100825.16;5109335;27;20498;-67
2021/12/26 05:20:56;;;;;;;2.27;1.20;;;;;;;6.65;32.11;100824.63;5102496;27;20398;-67
2021/12/26 05:23:22;;;;;;;3.23;0.90;;;;;;;6.23;33.72;100820.03;5113808;27;20079;-66
2021/12/26 05:25:48;;;;;;;1.83;1.47;;;;;;;5.48;33.64;100827.97;5114228;27;20035;-67
2021/12/26 05:28:13;;;;;;;4.00;1.13;;;;;;;6.50;33.16;100828.88;5113488;27;20632;-67
2021/12/26 05:30:39;;;;;;;1.77;1.27;;;;;;;6.10;33.05;100823.41;5113434;27;20760;-67
2021/12/26 05:33:04;;;;;;;1.50;1.10;;;;;;;5.70;34.18;100823.88;5114676;27;20046;-66
2021/12/26 05:35:31;;;;;;;2.07;1.17;;;;;;;6.14;33.69;100819.97;5113941;27;20050;-66
2021/12/26 05:37:57;;;;;;;1.17;0.90;;;;;;;6.72;32.48;100809.09;5113630;27;20019;-66
2021/12/26 05:40:22;;;;;;;2.87;1.00;;;;;;;6.48;33.21;100802.00;5113559;27;20288;-67
2021/12/26 05:42:48;;;;;;;2.70;1.23;;;;;;;6.27;32.42;100803.59;5112413;27;20546;-66
2021/12/26 05:45:14;;;;;;;2.00;1.30;;;;;;;6.11;33.56;100805.25;5127925;27;20108;-66
2021/12/26 05:47:39;;;;;;;1.53;1.00;;;;;;;6.74;32.28;100803.91;5112876;27;20084;-68
2021/12/26 05:50:07;;;;;;;2.47;1.13;;;;;;;6.76;32.74;100794.41;5112069;27;20126;-67
2021/12/26 05:52:32;;;;;;;4.27;1.03;;;;;;;6.24;32.89;100795.81;5112746;27;20015;-67
2021/12/26 05:54:58;;;;;;;3.00;1.77;;;;;;;6.47;32.41;100795.09;5113412;27;20292;-67
2021/12/26 05:57:24;;;;;;;0.97;0.90;;;;;;;6.68;32.08;100796.09;5109620;27;20027;-67
2021/12/26 05:59:49;;;;;;;1.43;1.07;;;;;;;6.08;32.84;100794.81;5106425;27;20077;-67
2021/12/26 06:02:15;;;;;;;1.40;1.13;;;;;;;5.78;33.48;100797.97;5123722;27;20043;-66
2021/12/26 06:04:41;;;;;;;2.13;0.93;;;;;;;6.25;33.00;100796.66;5132445;27;20023;-67
2021/12/26 06:07:06;;;;;;;1.67;1.57;;;;;;;6.11;33.65;100794.84;5131668;27;20531;-66
2021/12/26 06:09:32;;;;;;;1.93;1.27;;;;;;;6.13;32.90;100796.56;5129833;27;20276;-67
2021/12/26 06:11:57;;;;;;;2.67;1.20;;;;;;;6.19;32.66;100789.69;5129880;27;20034;-66
2021/12/26 06:14:23;;;;;;;1.73;1.20;;;;;;;6.18;33.19;100788.00;5109035;27;20039;-66
2021/12/26 06:16:48;;;;;;;3.30;1.23;;;;;;;6.02;33.28;100799.09;5111594;27;20034;-66
2021/12/26 06:19:14;;;;;;;1.60;1.17;;;;;;;6.74;32.71;100804.75;5101836;27;20409;-67
2021/12/26 06:21:39;;;;;;;2.63;1.30;;;;;;;6.08;34.24;100804.34;5130823;27;20431;-67
2021/12/26 06:24:05;;;;;;;2.63;1.17;;;;;;;6.36;33.35;100799.34;5107665;27;20027;-67
2021/12/26 06:26:31;;;;;;;2.20;1.13;;;;;;;6.25;33.76;100804.44;5121969;27;20031;-67
2021/12/26 06:28:57;;;;;;;3.13;1.20;;;;;;;6.66;32.80;100798.66;5106724;27;20382;-67
2021/12/26 06:31:22;;;;;;;3.07;1.43;;;;;;;6.01;33.54;100802.56;5124147;27;20285;-67
2021/12/26 06:33:48;;;;;;;4.13;1.37;;;;;;;6.02;33.33;100804.31;5106125;27;20023;-68
2021/12/26 06:36:14;;;;;;;2.57;1.20;;;;;;;6.05;33.91;100793.94;5121753;27;20119;-67
2021/12/26 06:38:41;;;;;;;3.03;1.37;;;;;;;6.08;33.02;100783.56;5108374;27;20515;-67
2021/12/26 06:41:08;;;;;;;2.23;1.10;;;;;;;5.59;33.89;100795.22;5125446;27;20285;-67
2021/12/26 06:43:34;;;;;;;1.37;1.10;;;;;;;5.65;34.73;100793.56;5107289;27;20292;-67
2021/12/26 06:46:01;;;;;;;3.23;1.10;;;;;;;5.94;34.12;100797.25;5123924;27;20272;-67
2021/12/26 06:48:27;;;;;;;2.13;1.40;;;;;;;5.86;33.61;100788.53;5106338;27;20334;-67
2021/12/26 06:50:53;;;;;;;2.07;1.07;;;;;;;5.94;34.28;100789.47;5108502;27;20843;-68
2021/12/26 06:53:19;;;;;;;1.20;1.00;;;;;;;5.78;33.94;100785.00;5111198;27;20019;-67
2021/12/26 06:55:46;;;;;;;1.83;1.40;;;;;;;5.75;34.45;100785.00;5105571;27;20281;-67
2021/12/26 06:58:12;;;;;;;2.73;1.17;;;;;;;5.04;35.06;100773.88;5126299;27;20114;-67
2021/12/26 07:00:38;;;;;;;2.27;1.10;;;;;;;5.30;34.99;100787.13;5111149;27;20371;-67
2021/12/26 07:03:03;;;;;;;4.10;1.40;;;;;;;5.59;34.19;100784.84;5105660;27;20344;-67
2021/12/26 07:05:29;;;;;;;2.50;1.20;;;;;;;5.61;34.25;100783.13;5127048;27;20356;-67
2021/12/26 07:07:54;;;;;;;1.43;1.10;;;;;;;6.26;33.34;100778.53;5126233;27;20157;-67
2021/12/26 07:10:20;;;;;;;1.63;1.00;;;;;;;5.74;34.13;100783.25;5123219;27;20011;-67
2021/12/26 07:12:46;;;;;;;7.00;1.33;;;;;;;5.39;34.31;100786.38;5118394;27;20024;-67
2021/12/26 07:15:11;;;;;;;2.17;1.23;;;;;;;5.64;34.13;100781.44;5110012;27;20027;-67
2021/12/26 07:17:39;;;;;;;5.23;1.30;;;;;;;5.55;33.96;100783.09;5107193;28;20050;-71
2021/12/26 07:20:06;;;;;;;2.00;1.00;;;;;;;5.59;33.32;100777.06;5105689;27;20031;-67
2021/12/26 07:22:32;;;;;;;1.60;1.00;;;;;;;5.04;35.08;100777.38;5119149;27;20329;-67
2021/12/26 07:24:57;;;;;;;3.33;1.30;;;;;;;5.68;34.42;100775.44;5105652;27;20308;-67
2021/12/26 07:27:23;;;;;;;1.93;1.00;;;;;;;6.37;33.29;100775.13;5127360;27;20061;-67
2021/12/26 07:29:49;;;;;;;2.53;1.33;;;;;;;5.34;35.16;100785.44;5107193;28;20069;-67
2021/12/26 07:32:14;;;;;;;3.03;1.00;;;;;;;4.84;34.66;100792.66;5107594;28;20027;-67
2021/12/26 07:34:40;;;;;;;2.30;1.17;;;;;;;5.66;34.54;100780.59;5106126;28;20034;-67
2021/12/26 07:37:06;;;;;;;1.97;1.40;;;;;;;5.44;34.53;100784.72;5102965;28;20027;-67
2021/12/26 07:39:31;;;;;;;1.47;1.10;;;;;;;5.25;34.96;100794.88;5119858;28;20437;-66
2021/12/26 07:41:57;;;;;;;2.73;1.40;;;;;;;5.88;33.99;100786.84;5106557;28;20287;-67
2021/12/26 07:44:22;;;;;;;1.63;1.10;;;;;;;5.86;33.67;100788.53;5107241;28;20494;-67
2021/12/26 07:46:49;;;;;;;4.67;1.50;;;;;;;6.09;33.44;100790.50;5102559;28;20023;-67
2021/12/26 07:49:15;;;;;;;3.00;1.37;;;;;;;5.87;33.50;100784.25;5103267;28;20375;-67
2021/12/26 07:51:40;;;;;;;2.07;1.00;;;;;;;6.17;32.62;100778.47;5106315;27;20277;-67
2021/12/26 07:54:06;;;;;;;5.23;1.40;;;;;;;6.58;32.62;100789.94;5126996;27;20394;-67
2021/12/26 07:56:31;;;;;;;1.73;1.30;;;;;;;6.17;33.24;100783.66;5109627;27;20023;-67
2021/12/26 07:58:57;;;;;;;4.53;1.30;;;;;;;6.28;33.26;100791.50;5127126;27;20072;-67
2021/12/26 08:01:23;;;;;;;3.10;1.43;;;;;;;6.10;33.17;100782.72;5127890;27;20079;-67
2021/12/26 08:03:48;;;;;;;2.80;1.40;;;;;;;6.10;32.88;100787.06;5132721;27;20059;-67
2021/12/26 08:06:18;;;;;;;2.27;1.57;;;;;;;5.68;33.96;100789.25;5124691;27;20027;-67
2021/12/26 08:08:45;;;;;;;3.57;1.93;;;;;;;6.21;33.22;100785.41;5133696;27;20026;-67
2021/12/26 08:11:11;;;;;;;2.27;1.50;;;;;;;6.87;32.36;100787.53;5109347;27;20280;-67
2021/12/26 08:13:36;;;;;;;3.43;1.53;;;;;;;6.62;33.11;100787.41;5110138;27;20276;-67
2021/12/26 08:16:05;;;;;;;1.90;1.40;;;;;;;6.84;32.14;100784.91;5110214;27;20095;-66
2021/12/26 08:18:31;;;;;;;19.20;5.97;;;;;;;6.37;33.22;100786.34;5126702;27;20119;-67
2021/12/26 08:20:57;;;;;;;7.40;2.87;;;;;;;6.20;33.77;100788.84;5110176;27;20645;-66
2021/12/26 08:23:22;;;;;;;8.40;2.50;;;;;;;6.78;33.02;100788.31;5115777;27;20313;-66
2021/12/26 08:25:48;;;;;;;4.53;2.70;;;;;;;6.91;31.84;100797.06;5113753;27;20042;-67
2021/12/26 08:28:16;;;;;;;11.27;4.50;;;;;;;5.99;33.86;100788.69;5115986;27;20087;-66
2021/12/26 08:30:43;;;;;;;3.87;2.00;;;;;;;6.30;33.51;100794.13;5112059;27;20022;-67
2021/12/26 08:33:08;;;;;;;3.63;1.80;;;;;;;6.83;32.52;100785.78;5131581;27;20288;-66
2021/12/26 08:35:35;;;;;;;4.20;2.00;;;;;;;6.63;32.63;100788.25;5113310;27;20280;-67
2021/12/26 08:38:01;;;;;;;2.60;1.63;;;;;;;7.25;31.73;100788.50;5114662;27;20023;-67
2021/12/26 08:40:27;;;;;;;2.67;1.60;;;;;;;6.88;32.63;100784.06;5112627;27;20353;-67
2021/12/26 08:42:52;;;;;;;4.20;1.30;;;;;;;6.97;32.69;100778.03;5133028;27;20280;-67
2021/12/26 08:45:17;;;;;;;3.03;1.73;;;;;;;6.08;33.44;100783.56;5133586;27;20039;-67
2021/12/26 08:47:43;;;;;;;1.33;1.10;;;;;;;5.83;33.87;100787.66;5132248;27;20023;-67
2021/12/26 08:50:11;;;;;;;1.93;1.20;;;;;;;6.21;34.00;100785.41;5112026;27;20083;-67
2021/12/26 08:52:38;;;;;;;4.43;1.83;;;;;;;5.94;33.66;100784.28;5104189;27;20027;-66
2021/12/26 08:55:04;;;;;;;3.30;1.80;;;;;;;6.61;33.09;100796.03;5111308;27;20316;-67
2021/12/26 08:57:30;;;;;;;4.17;2.53;;;;;;;5.50;35.56;100802.91;5111881;27;20345;-67
2021/12/26 08:59:56;;;;;;;3.07;1.77;;;;;;;6.59;33.21;100797.78;5113462;27;20763;-67
2021/12/26 09:02:21;;;;;;;2.47;1.93;;;;;;;7.20;32.98;100796.31;5132163;27;20292;-67
2021/12/26 09:04:47;;;;;;;4.80;2.23;;;;;;;6.67;33.42;100802.13;5131122;27;20071;-67
2021/12/26 09:07:14;;;;;;;6.07;2.00;;;;;;;6.30;34.03;100799.31;5129051;27;20471;-67
2021/12/26 09:09:40;;;;;;;6.27;1.37;;;;;;;6.45;34.41;100800.25;5132349;27;20038;-67
2021/12/26 09:12:06;;;;;;;1.93;1.60;;;;;;;7.32;33.21;100795.47;5126725;27;20280;-67
2021/12/26 09:14:32;;;;;;;2.83;2.00;;;;;;;6.03;34.96;100785.25;5114365;27;20117;-67
2021/12/26 09:16:58;;;;;;;5.77;2.10;;;;;;;7.17;33.90;100785.91;5101067;27;20376;-67
2021/12/26 09:19:27;;;;;;;4.53;2.43;;;;;;;6.81;33.69;100792.66;5114035;27;20061;-67
2021/12/26 09:21:54;;;;;;;3.70;1.93;;;;;;;7.83;32.04;100790.38;5121536;27;20372;-67
2021/12/26 09:24:20;;;;;;;3.03;1.70;;;;;;;7.46;33.02;100785.13;5131103;27;20280;-67
2021/12/26 09:26:45;;;;;;;4.23;2.27;;;;;;;8.15;32.00;100785.16;5129584;27;20349;-67
2021/12/26 09:29:11;;;;;;;3.83;1.90;;;;;;;7.53;32.24;100784.25;5112416;27;20015;-67
2021/12/26 09:31:36;;;;;;;5.37;1.83;;;;;;;7.79;32.59;100780.81;5114376;27;20122;-67
2021/12/26 09:34:01;;;;;;;1.97;1.50;;;;;;;7.59;32.93;100784.25;5131104;27;20058;-67
2021/12/26 09:36:27;;;;;;;12.07;5.37;;;;;;;8.09;32.21;100790.38;5112849;27;20027;-67
2021/12/26 09:38:52;;;;;;;5.77;2.27;;;;;;;7.83;32.24;100790.38;5102689;27;20110;-67
2021/12/26 09:41:18;;;;;;;3.30;1.93;;;;;;;7.99;32.25;100793.81;5112078;27;20497;-67
2021/12/26 09:43:43;;;;;;;3.67;2.33;;;;;;;8.03;32.81;100785.16;5111902;27;20038;-67
2021/12/26 09:46:09;;;;;;;4.67;1.93;;;;;;;8.68;31.98;100784.22;5110224;27;20054;-67
2021/12/26 09:48:34;;;;;;;4.13;2.83;;;;;;;8.39;32.50;100777.31;5112670;27;20027;-67
2021/12/26 09:51:00;;;;;;;4.37;2.50;;;;;;;8.11;32.66;100779.94;5120325;27;20376;-67
2021/12/26 09:53:25;;;;;;;4.27;2.00;;;;;;;7.96;33.26;100771.25;5113678;27;20023;-67
2021/12/26 09:55:50;;;;;;;2.50;1.67;;;;;;;7.40;33.56;100761.69;5112260;27;20054;-67
2021/12/26 09:58:16;;;;;;;4.20;2.03;;;;;;;7.81;33.49;100755.66;5105868;27;20045;-67
2021/12/26 10:00:44;;;;;;;3.57;1.50;;;;;;;7.85;33.64;100757.41;5131373;27;20459;-67
2021/12/26 10:03:23;;;;;;;3.60;1.83;;;;;;;8.47;32.67;100749.53;5130019;27;20059;-67
2021/12/26 10:06:10;;;;;;;2.80;1.70;;;;;;;7.85;34.26;100754.78;5111304;27;20304;-67
2021/12/26 10:09:04;;;;;;;3.57;1.97;;;;;;;8.03;33.18;100748.72;5109214;27;20329;-67
2021/12/26 10:11:35;;;;;;;4.87;1.93;;;;;;;8.11;33.96;100746.09;5124617;27;20031;-67
2021/12/26 10:14:04;;;;;;;7.30;2.87;;;;;;;8.81;32.86;100739.84;5131596;27;20341;-67
2021/12/26 10:16:34;;;;;;;6.67;2.50;;;;;;;9.11;32.71;100735.38;5108660;27;20292;-67
2021/12/26 10:19:04;;;;;;;2.20;1.47;;;;;;;9.39;31.14;100732.59;5112128;27;20284;-67
2021/12/26 10:21:37;;;;;;;2.43;1.43;;;;;;;9.46;32.04;100725.59;5131241;27;20023;-67
2021/12/26 10:24:10;;;;;;;5.20;2.35;;;;;;;9.94;31.38;100710.41;5106005;27;20039;-67
2021/12/26 10:26:38;;;;;;;3.60;2.23;;;;;;;9.32;32.03;100723.09;5110356;27;20036;-67
2021/12/26 10:29:22;;;;;;;5.37;2.20;;;;;;;9.74;31.55;100717.53;5097738;27;20016;-67
2021/12/26 10:31:55;;;;;;;6.73;2.50;;;;;;;9.58;32.68;100712.47;5131751;27;20652;-67
2021/12/26 10:34:33;;;;;;;5.40;2.47;;;;;;;8.96;32.72;100707.66;5130199;27;20031;-67
2021/12/26 10:37:01;;;;;;;4.73;2.83;;;;;;;9.79;31.74;100705.31;5110415;27;20034;-67
2021/12/26 10:39:36;;;;;;;6.87;2.50;;;;;;;9.72;31.50;100708.88;5111943;27;20027;-67
2021/12/26 10:42:05;;;;;;;5.23;2.20;;;;;;;10.06;31.58;100692.91;5112507;27;20474;-68
2021/12/26 10:44:38;;;;;;;3.43;2.00;;;;;;;10.60;31.65;100684.50;5129326;27;20031;-67
2021/12/26 10:47:17;;;;;;;;;;;;;;;11.56;29.94;100685.75;5112570;27;20589;-67
2021/12/26 10:49:55;;;;;;;5.80;2.50;;;;;;;10.26;31.61;100685.72;5112367;27;19911;-67
2021/12/26 10:52:26;;;;;;;6.80;2.77;;;;;;;10.73;31.20;100679.97;5131404;27;20105;-68
2021/12/26 10:54:59;;;;;;;3.60;2.33;;;;;;;10.47;32.00;100681.16;5098620;27;20038;-67
2021/12/26 10:57:34;;;;;;;7.37;2.83;;;;;;;9.91;32.09;100681.72;5125459;27;20035;-68
2021/12/26 11:00:11;;;;;;;9.17;3.10;;;;;;;9.47;33.35;100685.59;5110936;27;20110;-67
2021/12/26 11:02:40;;;;;;;4.37;2.10;;;;;;;9.27;33.43;100673.56;5111717;27;20396;-67
2021/12/26 11:05:07;;;;;;;4.63;2.43;;;;;;;9.92;32.89;100675.63;5130506;27;20011;-67
2021/12/26 11:07:46;;;;;;;5.53;2.33;;;;;;;10.27;32.54;100674.38;5111090;27;20402;-68
2021/12/26 11:10:36;;;;;;;4.90;2.23;;;;;;;9.76;33.19;100668.81;5110308;27;20031;-67
2021/12/26 11:13:04;;;;;;;4.37;2.27;;;;;;;9.67;33.73;100665.41;5115022;27;20055;-67
2021/12/26 11:15:36;;;;;;;7.60;2.80;;;;;;;9.61;33.81;100670.66;5130616;27;20453;-67
2021/12/26 11:18:05;;;;;;;7.30;3.97;;;;;;;10.86;31.55;100674.53;5093094;28;22278;-68
2021/12/26 11:20:39;;;;;;;6.90;2.67;;;;;;;10.83;31.47;100681.56;5099444;28;20433;-67
2021/12/26 11:23:13;;;;;;;5.03;2.97;;;;;;;10.09;33.07;100682.41;5101320;28;20028;-67
2021/12/26 11:25:45;;;;;;;7.07;3.00;;;;;;;10.47;32.86;100675.94;5099344;28;20061;-67
2021/12/26 11:28:14;;;;;;;6.50;3.20;;;;;;;10.94;31.70;100679.66;5109894;28;20030;-67
2021/12/26 11:30:41;;;;;;;7.27;3.83;;;;;;;10.43;32.33;100666.41;5107752;28;20038;-67
2021/12/26 11:33:08;;;;;;;6.57;3.00;;;;;;;10.42;32.07;100669.91;5108171;28;20031;-67
2021/12/26 11:35:34;;;;;;;8.20;4.13;;;;;;;10.99;31.17;100662.16;5103199;28;20032;-67